sensor_id;sensor_type;location;lat;lon;timestamp;P1;durP1;ratioP1;P2;durP2;ratioP2
47882;SDS011;37739;50.350;7.578;2023-05-14T00:00:23;14.23;;;9.63;;
47882;SDS011;37739;50.350;7.578;2023-05-14T00:02:49;10.53;;;9.20;;
47882;SDS011;37739;50.350;7.578;2023-05-14T00:05:16;10.50;;;9.40;;
47882;SDS011;37739;50.350;7.578;2023-05-14T00:07:41;9.57;;;8.67;;
47882;SDS011;37739;50.350;7.578;2023-05-14T00:10:07;18.27;;;8.93;;
47882;SDS011;37739;50.350;7.578;2023-05-14T00:12:35;16.90;;;8.90;;
47882;SDS011;37739;50.350;7.578;2023-05-14T00:15:03;9.50;;;8.50;;
47882;SDS011;37739;50.350;7.578;2023-05-14T00:17:28;9.57;;;8.63;;
47882;SDS011;37739;50.350;7.578;2023-05-14T00:19:54;10.43;;;7.90;;
47882;SDS011;37739;50.350;7.578;2023-05-14T00:22:19;6.50;;;5.90;;
47882;SDS011;37739;50.350;7.578;2023-05-14T00:24:45;9.33;;;8.53;;
47882;SDS011;37739;50.350;7.578;2023-05-14T00:27:10;15.77;;;9.20;;
47882;SDS011;37739;50.350;7.578;2023-05-14T00:29:38;14.80;;;9.07;;
47882;SDS011;37739;50.350;7.578;2023-05-14T00:32:04;14.13;;;8.83;;
47882;SDS011;37739;50.350;7.578;2023-05-14T00:34:29;14.23;;;7.60;;
47882;SDS011;37739;50.350;7.578;2023-05-14T00:36:55;9.27;;;8.30;;
47882;SDS011;37739;50.350;7.578;2023-05-14T00:39:20;9.53;;;8.63;;
47882;SDS011;37739;50.350;7.578;2023-05-14T00:41:47;10.67;;;8.90;;
47882;SDS011;37739;50.350;7.578;2023-05-14T00:44:15;13.40;;;8.43;;
47882;SDS011;37739;50.350;7.578;2023-05-14T00:46:40;8.60;;;7.80;;
47882;SDS011;37739;50.350;7.578;2023-05-14T00:49:10;7.13;;;6.53;;
47882;SDS011;37739;50.350;7.578;2023-05-14T00:51:37;7.50;;;6.90;;
47882;SDS011;37739;50.350;7.578;2023-05-14T00:54:05;7.33;;;6.70;;
47882;SDS011;37739;50.350;7.578;2023-05-14T00:56:36;8.03;;;7.37;;
47882;SDS011;37739;50.350;7.578;2023-05-14T00:59:04;6.33;;;5.73;;
47882;SDS011;37739;50.350;7.578;2023-05-14T01:01:31;6.53;;;6.03;;
47882;SDS011;37739;50.350;7.578;2023-05-14T01:03:57;5.87;;;5.37;;
47882;SDS011;37739;50.350;7.578;2023-05-14T01:06:27;6.53;;;5.53;;
47882;SDS011;37739;50.350;7.578;2023-05-14T01:08:58;6.13;;;5.60;;
47882;SDS011;37739;50.350;7.578;2023-05-14T01:11:29;6.10;;;5.70;;
47882;SDS011;37739;50.350;7.578;2023-05-14T01:16:47;6.97;;;6.47;;
47882;SDS011;37739;50.350;7.578;2023-05-14T01:19:28;9.13;;;7.30;;
47882;SDS011;37739;50.350;7.578;2023-05-14T01:22:01;6.27;;;5.77;;
47882;SDS011;37739;50.350;7.578;2023-05-14T01:24:29;7.40;;;6.80;;
47882;SDS011;37739;50.350;7.578;2023-05-14T01:27:00;8.30;;;7.50;;
47882;SDS011;37739;50.350;7.578;2023-05-14T01:29:35;8.50;;;7.20;;
47882;SDS011;37739;50.350;7.578;2023-05-14T01:32:07;13.33;;;8.20;;
47882;SDS011;37739;50.350;7.578;2023-05-14T01:34:39;9.43;;;8.50;;
47882;SDS011;37739;50.350;7.578;2023-05-14T01:37:08;7.87;;;7.03;;
47882;SDS011;37739;50.350;7.578;2023-05-14T01:39:35;12.60;;;7.60;;
47882;SDS011;37739;50.350;7.578;2023-05-14T01:42:01;12.97;;;8.30;;
47882;SDS011;37739;50.350;7.578;2023-05-14T01:44:31;63.10;;;9.50;;
47882;SDS011;37739;50.350;7.578;2023-05-14T01:46:57;30.13;;;8.73;;
47882;SDS011;37739;50.350;7.578;2023-05-14T01:49:22;31.70;;;8.30;;
47882;SDS011;37739;50.350;7.578;2023-05-14T01:51:48;24.87;;;7.87;;
47882;SDS011;37739;50.350;7.578;2023-05-14T01:54:13;28.53;;;7.13;;
47882;SDS011;37739;50.350;7.578;2023-05-14T01:56:38;14.87;;;8.47;;
47882;SDS011;37739;50.350;7.578;2023-05-14T01:59:06;7.53;;;6.60;;
47882;SDS011;37739;50.350;7.578;2023-05-14T02:01:34;12.53;;;5.60;;
47882;SDS011;37739;50.350;7.578;2023-05-14T02:04:02;5.90;;;5.23;;
47882;SDS011;37739;50.350;7.578;2023-05-14T02:06:27;14.03;;;6.30;;
47882;SDS011;37739;50.350;7.578;2023-05-14T02:08:52;23.33;;;6.43;;
47882;SDS011;37739;50.350;7.578;2023-05-14T02:11:23;13.07;;;5.23;;
47882;SDS011;37739;50.350;7.578;2023-05-14T02:13:48;16.13;;;5.87;;
47882;SDS011;37739;50.350;7.578;2023-05-14T02:16:16;13.93;;;6.63;;
47882;SDS011;37739;50.350;7.578;2023-05-14T02:18:43;9.37;;;5.37;;
47882;SDS011;37739;50.350;7.578;2023-05-14T02:21:10;13.10;;;5.30;;
47882;SDS011;37739;50.350;7.578;2023-05-14T02:23:36;14.93;;;7.43;;
47882;SDS011;37739;50.350;7.578;2023-05-14T02:26:01;19.43;;;7.70;;
47882;SDS011;37739;50.350;7.578;2023-05-14T02:28:26;14.40;;;7.20;;
47882;SDS011;37739;50.350;7.578;2023-05-14T02:30:56;6.83;;;6.23;;
47882;SDS011;37739;50.350;7.578;2023-05-14T02:33:25;6.53;;;5.83;;
47882;SDS011;37739;50.350;7.578;2023-05-14T02:35:51;12.43;;;7.23;;
47882;SDS011;37739;50.350;7.578;2023-05-14T02:38:19;7.63;;;5.83;;
47882;SDS011;37739;50.350;7.578;2023-05-14T02:40:44;10.70;;;5.80;;
47882;SDS011;37739;50.350;7.578;2023-05-14T02:43:09;8.70;;;7.60;;
47882;SDS011;37739;50.350;7.578;2023-05-14T02:45:37;8.50;;;6.63;;
47882;SDS011;37739;50.350;7.578;2023-05-14T02:48:02;8.80;;;6.93;;
47882;SDS011;37739;50.350;7.578;2023-05-14T02:50:28;9.83;;;6.60;;
47882;SDS011;37739;50.350;7.578;2023-05-14T02:52:58;11.07;;;6.40;;
47882;SDS011;37739;50.350;7.578;2023-05-14T02:55:24;13.97;;;7.50;;
47882;SDS011;37739;50.350;7.578;2023-05-14T02:57:51;13.03;;;7.20;;
47882;SDS011;37739;50.350;7.578;2023-05-14T03:00:17;10.67;;;7.93;;
47882;SDS011;37739;50.350;7.578;2023-05-14T03:02:45;6.77;;;6.10;;
47882;SDS011;37739;50.350;7.578;2023-05-14T03:05:11;11.27;;;7.40;;
47882;SDS011;37739;50.350;7.578;2023-05-14T03:07:36;9.27;;;7.00;;
47882;SDS011;37739;50.350;7.578;2023-05-14T03:10:01;8.20;;;7.40;;
47882;SDS011;37739;50.350;7.578;2023-05-14T03:12:29;17.80;;;8.00;;
47882;SDS011;37739;50.350;7.578;2023-05-14T03:14:57;14.33;;;7.93;;
47882;SDS011;37739;50.350;7.578;2023-05-14T03:17:22;11.63;;;8.30;;
47882;SDS011;37739;50.350;7.578;2023-05-14T03:19:50;20.33;;;8.40;;
47882;SDS011;37739;50.350;7.578;2023-05-14T03:22:18;16.03;;;7.93;;
47882;SDS011;37739;50.350;7.578;2023-05-14T03:24:45;17.40;;;8.67;;
47882;SDS011;37739;50.350;7.578;2023-05-14T03:27:13;13.57;;;7.20;;
47882;SDS011;37739;50.350;7.578;2023-05-14T03:29:38;15.20;;;6.67;;
47882;SDS011;37739;50.350;7.578;2023-05-14T03:32:04;10.67;;;6.30;;
47882;SDS011;37739;50.350;7.578;2023-05-14T03:34:32;22.47;;;8.70;;
47882;SDS011;37739;50.350;7.578;2023-05-14T03:37:00;24.07;;;8.43;;
47882;SDS011;37739;50.350;7.578;2023-05-14T03:39:26;11.37;;;8.47;;
47882;SDS011;37739;50.350;7.578;2023-05-14T03:41:53;23.17;;;7.37;;
47882;SDS011;37739;50.350;7.578;2023-05-14T03:44:22;23.27;;;9.90;;
47882;SDS011;37739;50.350;7.578;2023-05-14T03:46:50;14.13;;;8.93;;
47882;SDS011;37739;50.350;7.578;2023-05-14T03:49:18;16.00;;;9.37;;
47882;SDS011;37739;50.350;7.578;2023-05-14T03:51:43;23.50;;;8.30;;
47882;SDS011;37739;50.350;7.578;2023-05-14T03:54:09;36.40;;;9.20;;
47882;SDS011;37739;50.350;7.578;2023-05-14T03:56:34;13.03;;;8.97;;
47882;SDS011;37739;50.350;7.578;2023-05-14T03:58:59;29.20;;;9.30;;
47882;SDS011;37739;50.350;7.578;2023-05-14T04:01:25;7.50;;;6.80;;
47882;SDS011;37739;50.350;7.578;2023-05-14T04:03:52;14.60;;;8.60;;
47882;SDS011;37739;50.350;7.578;2023-05-14T04:06:20;18.10;;;8.77;;
47882;SDS011;37739;50.350;7.578;2023-05-14T04:08:47;22.50;;;10.60;;
47882;SDS011;37739;50.350;7.578;2023-05-14T04:11:14;15.70;;;8.90;;
47882;SDS011;37739;50.350;7.578;2023-05-14T04:13:45;19.67;;;9.10;;
47882;SDS011;37739;50.350;7.578;2023-05-14T04:16:13;17.77;;;9.73;;
47882;SDS011;37739;50.350;7.578;2023-05-14T04:18:38;13.60;;;8.60;;
47882;SDS011;37739;50.350;7.578;2023-05-14T04:21:04;11.90;;;9.23;;
47882;SDS011;37739;50.350;7.578;2023-05-14T04:23:32;22.27;;;8.50;;
47882;SDS011;37739;50.350;7.578;2023-05-14T04:25:59;20.10;;;9.30;;
47882;SDS011;37739;50.350;7.578;2023-05-14T04:28:27;21.03;;;9.70;;
47882;SDS011;37739;50.350;7.578;2023-05-14T04:30:52;39.60;;;10.47;;
47882;SDS011;37739;50.350;7.578;2023-05-14T04:33:18;23.47;;;10.40;;
47882;SDS011;37739;50.350;7.578;2023-05-14T04:35:43;26.20;;;9.67;;
47882;SDS011;37739;50.350;7.578;2023-05-14T04:38:09;19.90;;;9.73;;
47882;SDS011;37739;50.350;7.578;2023-05-14T04:40:35;8.40;;;6.70;;
47882;SDS011;37739;50.350;7.578;2023-05-14T04:43:03;7.50;;;5.77;;
47882;SDS011;37739;50.350;7.578;2023-05-14T04:45:33;9.43;;;5.33;;
47882;SDS011;37739;50.350;7.578;2023-05-14T04:47:58;7.03;;;5.40;;
47882;SDS011;37739;50.350;7.578;2023-05-14T04:50:24;5.67;;;4.70;;
47882;SDS011;37739;50.350;7.578;2023-05-14T04:52:51;8.60;;;5.80;;
47882;SDS011;37739;50.350;7.578;2023-05-14T04:55:17;9.10;;;5.83;;
47882;SDS011;37739;50.350;7.578;2023-05-14T04:57:42;5.77;;;5.20;;
47882;SDS011;37739;50.350;7.578;2023-05-14T05:00:08;13.70;;;6.47;;
47882;SDS011;37739;50.350;7.578;2023-05-14T05:02:34;8.27;;;5.10;;
47882;SDS011;37739;50.350;7.578;2023-05-14T05:04:59;13.23;;;6.53;;
47882;SDS011;37739;50.350;7.578;2023-05-14T05:07:27;11.17;;;6.03;;
47882;SDS011;37739;50.350;7.578;2023-05-14T05:09:55;13.77;;;5.00;;
47882;SDS011;37739;50.350;7.578;2023-05-14T05:12:22;12.77;;;6.03;;
47882;SDS011;37739;50.350;7.578;2023-05-14T05:14:48;5.70;;;5.10;;
47882;SDS011;37739;50.350;7.578;2023-05-14T05:17:13;17.03;;;7.20;;
47882;SDS011;37739;50.350;7.578;2023-05-14T05:19:38;12.50;;;5.63;;
47882;SDS011;37739;50.350;7.578;2023-05-14T05:22:04;6.20;;;5.60;;
47882;SDS011;37739;50.350;7.578;2023-05-14T05:24:29;10.50;;;5.80;;
47882;SDS011;37739;50.350;7.578;2023-05-14T05:26:57;8.70;;;5.80;;
47882;SDS011;37739;50.350;7.578;2023-05-14T05:29:23;6.63;;;5.93;;
47882;SDS011;37739;50.350;7.578;2023-05-14T05:31:50;6.20;;;5.60;;
47882;SDS011;37739;50.350;7.578;2023-05-14T05:34:18;9.40;;;5.80;;
47882;SDS011;37739;50.350;7.578;2023-05-14T05:36:44;9.73;;;5.87;;
47882;SDS011;37739;50.350;7.578;2023-05-14T05:39:10;5.57;;;4.93;;
47882;SDS011;37739;50.350;7.578;2023-05-14T05:41:35;9.60;;;4.93;;
47882;SDS011;37739;50.350;7.578;2023-05-14T05:44:02;11.20;;;4.80;;
47882;SDS011;37739;50.350;7.578;2023-05-14T05:46:28;4.80;;;3.57;;
47882;SDS011;37739;50.350;7.578;2023-05-14T05:48:53;6.70;;;6.03;;
47882;SDS011;37739;50.350;7.578;2023-05-14T05:51:18;7.80;;;5.50;;
47882;SDS011;37739;50.350;7.578;2023-05-14T05:53:44;12.13;;;6.20;;
47882;SDS011;37739;50.350;7.578;2023-05-14T05:56:12;7.73;;;7.03;;
47882;SDS011;37739;50.350;7.578;2023-05-14T05:58:37;5.97;;;5.00;;
47882;SDS011;37739;50.350;7.578;2023-05-14T06:01:07;26.47;;;7.10;;
47882;SDS011;37739;50.350;7.578;2023-05-14T06:03:32;12.03;;;6.30;;
47882;SDS011;37739;50.350;7.578;2023-05-14T06:06:00;14.07;;;6.37;;
47882;SDS011;37739;50.350;7.578;2023-05-14T06:08:25;11.83;;;6.50;;
47882;SDS011;37739;50.350;7.578;2023-05-14T06:10:50;10.20;;;5.70;;
47882;SDS011;37739;50.350;7.578;2023-05-14T06:13:16;13.17;;;6.73;;
47882;SDS011;37739;50.350;7.578;2023-05-14T06:15:43;7.30;;;6.20;;
47882;SDS011;37739;50.350;7.578;2023-05-14T06:18:09;6.70;;;6.10;;
47882;SDS011;37739;50.350;7.578;2023-05-14T06:20:36;10.30;;;6.30;;
47882;SDS011;37739;50.350;7.578;2023-05-14T06:23:06;7.53;;;6.60;;
47882;SDS011;37739;50.350;7.578;2023-05-14T06:25:36;7.20;;;6.20;;
47882;SDS011;37739;50.350;7.578;2023-05-14T06:28:01;8.00;;;7.20;;
47882;SDS011;37739;50.350;7.578;2023-05-14T06:30:26;9.10;;;7.20;;
47882;SDS011;37739;50.350;7.578;2023-05-14T06:32:54;12.00;;;9.00;;
47882;SDS011;37739;50.350;7.578;2023-05-14T06:35:22;12.47;;;7.80;;
47882;SDS011;37739;50.350;7.578;2023-05-14T06:37:47;8.10;;;6.37;;
47882;SDS011;37739;50.350;7.578;2023-05-14T06:40:13;8.33;;;6.33;;
47882;SDS011;37739;50.350;7.578;2023-05-14T06:42:39;9.83;;;7.60;;
47882;SDS011;37739;50.350;7.578;2023-05-14T06:45:07;8.60;;;7.30;;
47882;SDS011;37739;50.350;7.578;2023-05-14T06:47:33;10.03;;;6.10;;
47882;SDS011;37739;50.350;7.578;2023-05-14T06:50:00;9.60;;;8.50;;
47882;SDS011;37739;50.350;7.578;2023-05-14T06:52:26;12.80;;;7.93;;
47882;SDS011;37739;50.350;7.578;2023-05-14T06:54:53;7.77;;;6.97;;
47882;SDS011;37739;50.350;7.578;2023-05-14T06:57:21;5.83;;;5.30;;
47882;SDS011;37739;50.350;7.578;2023-05-14T06:59:46;8.77;;;7.97;;
47882;SDS011;37739;50.350;7.578;2023-05-14T07:02:12;8.50;;;7.70;;
47882;SDS011;37739;50.350;7.578;2023-05-14T07:04:37;7.67;;;6.97;;
47882;SDS011;37739;50.350;7.578;2023-05-14T07:07:02;9.83;;;8.83;;
47882;SDS011;37739;50.350;7.578;2023-05-14T07:09:30;10.30;;;9.40;;
47882;SDS011;37739;50.350;7.578;2023-05-14T07:11:55;6.17;;;5.63;;
47882;SDS011;37739;50.350;7.578;2023-05-14T07:14:23;10.23;;;9.23;;
47882;SDS011;37739;50.350;7.578;2023-05-14T07:16:51;10.90;;;9.80;;
47882;SDS011;37739;50.350;7.578;2023-05-14T07:19:16;8.80;;;8.00;;
47882;SDS011;37739;50.350;7.578;2023-05-14T07:21:41;8.70;;;7.90;;
47882;SDS011;37739;50.350;7.578;2023-05-14T07:24:06;9.93;;;9.03;;
47882;SDS011;37739;50.350;7.578;2023-05-14T07:26:32;9.80;;;8.80;;
47882;SDS011;37739;50.350;7.578;2023-05-14T07:29:00;10.50;;;9.53;;
47882;SDS011;37739;50.350;7.578;2023-05-14T07:31:27;6.53;;;5.83;;
47882;SDS011;37739;50.350;7.578;2023-05-14T07:33:53;8.80;;;8.00;;
47882;SDS011;37739;50.350;7.578;2023-05-14T07:36:18;8.00;;;7.20;;
47882;SDS011;37739;50.350;7.578;2023-05-14T07:38:48;11.67;;;10.57;;
47882;SDS011;37739;50.350;7.578;2023-05-14T07:41:14;9.20;;;8.30;;
47882;SDS011;37739;50.350;7.578;2023-05-14T07:43:42;8.73;;;7.93;;
47882;SDS011;37739;50.350;7.578;2023-05-14T07:46:07;7.97;;;7.27;;
47882;SDS011;37739;50.350;7.578;2023-05-14T07:48:32;11.47;;;10.37;;
47882;SDS011;37739;50.350;7.578;2023-05-14T07:50:58;9.33;;;8.50;;
47882;SDS011;37739;50.350;7.578;2023-05-14T07:53:26;9.13;;;8.33;;
47882;SDS011;37739;50.350;7.578;2023-05-14T07:55:56;9.33;;;8.53;;
47882;SDS011;37739;50.350;7.578;2023-05-14T07:58:26;9.07;;;8.27;;
47882;SDS011;37739;50.350;7.578;2023-05-14T08:00:52;11.13;;;9.90;;
47882;SDS011;37739;50.350;7.578;2023-05-14T08:03:18;9.87;;;8.97;;
47882;SDS011;37739;50.350;7.578;2023-05-14T08:05:43;8.53;;;7.77;;
47882;SDS011;37739;50.350;7.578;2023-05-14T08:08:11;11.03;;;10.13;;
47882;SDS011;37739;50.350;7.578;2023-05-14T08:10:38;9.80;;;9.00;;
47882;SDS011;37739;50.350;7.578;2023-05-14T08:13:04;10.20;;;9.30;;
47882;SDS011;37739;50.350;7.578;2023-05-14T08:15:29;9.80;;;9.00;;
47882;SDS011;37739;50.350;7.578;2023-05-14T08:17:57;10.60;;;9.70;;
47882;SDS011;37739;50.350;7.578;2023-05-14T08:20:27;10.00;;;9.10;;
47882;SDS011;37739;50.350;7.578;2023-05-14T08:22:53;9.03;;;8.23;;
47882;SDS011;37739;50.350;7.578;2023-05-14T08:25:18;9.77;;;8.77;;
47882;SDS011;37739;50.350;7.578;2023-05-14T08:27:44;8.30;;;7.50;;
47882;SDS011;37739;50.350;7.578;2023-05-14T08:30:09;8.20;;;7.50;;
47882;SDS011;37739;50.350;7.578;2023-05-14T08:32:35;9.60;;;8.70;;
47882;SDS011;37739;50.350;7.578;2023-05-14T08:35:02;8.70;;;7.80;;
47882;SDS011;37739;50.350;7.578;2023-05-14T08:37:27;10.07;;;9.27;;
47882;SDS011;37739;50.350;7.578;2023-05-14T08:39:53;9.27;;;8.47;;
47882;SDS011;37739;50.350;7.578;2023-05-14T08:42:19;7.87;;;7.13;;
47882;SDS011;37739;50.350;7.578;2023-05-14T08:44:48;7.23;;;6.63;;
47882;SDS011;37739;50.350;7.578;2023-05-14T08:47:20;7.87;;;7.27;;
47882;SDS011;37739;50.350;7.578;2023-05-14T08:49:48;8.10;;;7.47;;
47882;SDS011;37739;50.350;7.578;2023-05-14T08:52:21;7.70;;;7.00;;
47882;SDS011;37739;50.350;7.578;2023-05-14T08:54:47;7.07;;;6.57;;
47882;SDS011;37739;50.350;7.578;2023-05-14T08:57:14;9.20;;;8.50;;
47882;SDS011;37739;50.350;7.578;2023-05-14T08:59:42;7.80;;;7.20;;
47882;SDS011;37739;50.350;7.578;2023-05-14T09:02:11;7.30;;;6.70;;
47882;SDS011;37739;50.350;7.578;2023-05-14T09:04:43;8.53;;;7.83;;
47882;SDS011;37739;50.350;7.578;2023-05-14T09:07:11;7.30;;;6.70;;
47882;SDS011;37739;50.350;7.578;2023-05-14T09:09:37;6.97;;;6.40;;
47882;SDS011;37739;50.350;7.578;2023-05-14T09:12:03;6.57;;;5.97;;
47882;SDS011;37739;50.350;7.578;2023-05-14T09:14:29;6.70;;;6.20;;
47882;SDS011;37739;50.350;7.578;2023-05-14T09:16:57;5.77;;;5.37;;
47882;SDS011;37739;50.350;7.578;2023-05-14T09:19:24;6.07;;;5.67;;
47882;SDS011;37739;50.350;7.578;2023-05-14T09:21:55;6.17;;;5.67;;
47882;SDS011;37739;50.350;7.578;2023-05-14T09:24:23;6.07;;;5.67;;
47882;SDS011;37739;50.350;7.578;2023-05-14T09:26:53;6.70;;;6.17;;
47882;SDS011;37739;50.350;7.578;2023-05-14T09:29:20;5.60;;;4.80;;
47882;SDS011;37739;50.350;7.578;2023-05-14T09:31:50;5.23;;;4.83;;
47882;SDS011;37739;50.350;7.578;2023-05-14T09:34:27;5.30;;;4.90;;
47882;SDS011;37739;50.350;7.578;2023-05-14T09:37:02;5.93;;;5.53;;
47882;SDS011;37739;50.350;7.578;2023-05-14T09:39:30;6.70;;;6.20;;
47882;SDS011;37739;50.350;7.578;2023-05-14T09:41:56;5.40;;;5.00;;
47882;SDS011;37739;50.350;7.578;2023-05-14T09:44:22;5.67;;;5.27;;
47882;SDS011;37739;50.350;7.578;2023-05-14T09:46:48;5.33;;;4.73;;
47882;SDS011;37739;50.350;7.578;2023-05-14T09:49:14;5.47;;;5.07;;
47882;SDS011;37739;50.350;7.578;2023-05-14T09:51:43;5.30;;;4.90;;
47882;SDS011;37739;50.350;7.578;2023-05-14T09:54:16;4.67;;;4.27;;
47882;SDS011;37739;50.350;7.578;2023-05-14T09:56:44;4.47;;;4.10;;
47882;SDS011;37739;50.350;7.578;2023-05-14T09:59:10;4.97;;;4.57;;
47882;SDS011;37739;50.350;7.578;2023-05-14T10:01:35;5.43;;;5.03;;
47882;SDS011;37739;50.350;7.578;2023-05-14T10:04:02;4.80;;;4.40;;
47882;SDS011;37739;50.350;7.578;2023-05-14T10:06:32;4.27;;;3.97;;
47882;SDS011;37739;50.350;7.578;2023-05-14T10:09:04;4.90;;;4.50;;
47882;SDS011;37739;50.350;7.578;2023-05-14T10:11:33;4.90;;;4.50;;
47882;SDS011;37739;50.350;7.578;2023-05-14T10:14:10;4.50;;;4.10;;
47882;SDS011;37739;50.350;7.578;2023-05-14T10:16:43;4.00;;;3.70;;
47882;SDS011;37739;50.350;7.578;2023-05-14T10:19:15;3.90;;;3.60;;
47882;SDS011;37739;50.350;7.578;2023-05-14T10:21:43;3.80;;;3.50;;
47882;SDS011;37739;50.350;7.578;2023-05-14T10:24:14;6.77;;;5.13;;
47882;SDS011;37739;50.350;7.578;2023-05-14T10:26:40;4.70;;;4.23;;
47882;SDS011;37739;50.350;7.578;2023-05-14T10:29:08;4.90;;;4.40;;
47882;SDS011;37739;50.350;7.578;2023-05-14T10:31:46;4.03;;;3.73;;
47882;SDS011;37739;50.350;7.578;2023-05-14T10:37:01;3.47;;;3.20;;
47882;SDS011;37739;50.350;7.578;2023-05-14T10:42:18;3.43;;;3.13;;
47882;SDS011;37739;50.350;7.578;2023-05-14T10:44:47;3.47;;;3.17;;
47882;SDS011;37739;50.350;7.578;2023-05-14T10:47:22;3.77;;;3.47;;
47882;SDS011;37739;50.350;7.578;2023-05-14T10:49:52;3.93;;;3.63;;
47882;SDS011;37739;50.350;7.578;2023-05-14T10:52:21;3.50;;;3.20;;
47882;SDS011;37739;50.350;7.578;2023-05-14T10:55:05;3.57;;;3.27;;
47882;SDS011;37739;50.350;7.578;2023-05-14T10:57:37;3.50;;;3.30;;
47882;SDS011;37739;50.350;7.578;2023-05-14T11:00:04;3.03;;;2.80;;
47882;SDS011;37739;50.350;7.578;2023-05-14T11:02:37;2.93;;;2.73;;
47882;SDS011;37739;50.350;7.578;2023-05-14T11:07:35;3.10;;;2.90;;
47882;SDS011;37739;50.350;7.578;2023-05-14T11:12:35;2.50;;;2.30;;
47882;SDS011;37739;50.350;7.578;2023-05-14T11:15:26;3.77;;;3.37;;
47882;SDS011;37739;50.350;7.578;2023-05-14T11:17:51;3.70;;;3.40;;
47882;SDS011;37739;50.350;7.578;2023-05-14T11:20:19;3.17;;;2.90;;
47882;SDS011;37739;50.350;7.578;2023-05-14T11:22:46;2.83;;;2.63;;
47882;SDS011;37739;50.350;7.578;2023-05-14T11:25:15;2.70;;;2.50;;
47882;SDS011;37739;50.350;7.578;2023-05-14T11:27:43;2.57;;;2.37;;
47882;SDS011;37739;50.350;7.578;2023-05-14T11:30:13;3.27;;;2.97;;
47882;SDS011;37739;50.350;7.578;2023-05-14T11:32:43;2.97;;;2.77;;
47882;SDS011;37739;50.350;7.578;2023-05-14T11:35:14;3.10;;;2.80;;
47882;SDS011;37739;50.350;7.578;2023-05-14T11:37:48;3.43;;;3.13;;
47882;SDS011;37739;50.350;7.578;2023-05-14T11:40:17;2.70;;;2.50;;
47882;SDS011;37739;50.350;7.578;2023-05-14T11:42:42;3.17;;;2.97;;
47882;SDS011;37739;50.350;7.578;2023-05-14T11:45:10;3.93;;;2.67;;
47882;SDS011;37739;50.350;7.578;2023-05-14T11:47:36;3.07;;;2.77;;
47882;SDS011;37739;50.350;7.578;2023-05-14T11:50:02;2.47;;;2.27;;
47882;SDS011;37739;50.350;7.578;2023-05-14T11:52:30;3.23;;;3.00;;
47882;SDS011;37739;50.350;7.578;2023-05-14T11:55:00;2.63;;;2.43;;
47882;SDS011;37739;50.350;7.578;2023-05-14T11:57:26;2.60;;;2.40;;
47882;SDS011;37739;50.350;7.578;2023-05-14T11:59:54;2.70;;;2.50;;
47882;SDS011;37739;50.350;7.578;2023-05-14T12:02:23;2.73;;;2.53;;
47882;SDS011;37739;50.350;7.578;2023-05-14T12:04:53;5.47;;;2.80;;
47882;SDS011;37739;50.350;7.578;2023-05-14T12:07:18;2.70;;;2.30;;
47882;SDS011;37739;50.350;7.578;2023-05-14T12:09:47;2.10;;;2.00;;
47882;SDS011;37739;50.350;7.578;2023-05-14T12:12:17;2.83;;;2.63;;
47882;SDS011;37739;50.350;7.578;2023-05-14T12:14:47;3.10;;;2.40;;
47882;SDS011;37739;50.350;7.578;2023-05-14T12:17:17;2.70;;;2.50;;
47882;SDS011;37739;50.350;7.578;2023-05-14T12:19:51;2.27;;;2.07;;
47882;SDS011;37739;50.350;7.578;2023-05-14T12:22:20;2.77;;;2.57;;
47882;SDS011;37739;50.350;7.578;2023-05-14T12:24:56;2.73;;;2.53;;
47882;SDS011;37739;50.350;7.578;2023-05-14T12:27:23;2.60;;;2.30;;
47882;SDS011;37739;50.350;7.578;2023-05-14T12:29:58;2.30;;;2.10;;
47882;SDS011;37739;50.350;7.578;2023-05-14T12:32:24;2.67;;;2.40;;
47882;SDS011;37739;50.350;7.578;2023-05-14T12:34:52;3.10;;;2.90;;
47882;SDS011;37739;50.350;7.578;2023-05-14T12:37:22;3.17;;;2.97;;
47882;SDS011;37739;50.350;7.578;2023-05-14T12:39:50;2.97;;;2.77;;
47882;SDS011;37739;50.350;7.578;2023-05-14T12:42:15;2.83;;;2.63;;
47882;SDS011;37739;50.350;7.578;2023-05-14T12:44:41;2.20;;;2.00;;
47882;SDS011;37739;50.350;7.578;2023-05-14T12:47:06;2.10;;;2.00;;
47882;SDS011;37739;50.350;7.578;2023-05-14T12:49:36;2.50;;;2.30;;
47882;SDS011;37739;50.350;7.578;2023-05-14T12:52:06;2.63;;;2.43;;
47882;SDS011;37739;50.350;7.578;2023-05-14T12:54:31;2.80;;;2.60;;
47882;SDS011;37739;50.350;7.578;2023-05-14T12:56:57;2.40;;;2.20;;
47882;SDS011;37739;50.350;7.578;2023-05-14T12:59:27;3.10;;;2.30;;
47882;SDS011;37739;50.350;7.578;2023-05-14T13:01:52;2.20;;;2.00;;
47882;SDS011;37739;50.350;7.578;2023-05-14T13:04:17;2.57;;;2.30;;
47882;SDS011;37739;50.350;7.578;2023-05-14T13:06:43;2.47;;;2.27;;
47882;SDS011;37739;50.350;7.578;2023-05-14T13:09:11;2.33;;;2.13;;
47882;SDS011;37739;50.350;7.578;2023-05-14T13:11:36;1.93;;;1.70;;
47882;SDS011;37739;50.350;7.578;2023-05-14T13:14:01;2.30;;;2.10;;
47882;SDS011;37739;50.350;7.578;2023-05-14T13:16:31;2.37;;;2.17;;
47882;SDS011;37739;50.350;7.578;2023-05-14T13:18:59;3.00;;;2.80;;
47882;SDS011;37739;50.350;7.578;2023-05-14T13:21:24;2.40;;;2.20;;
47882;SDS011;37739;50.350;7.578;2023-05-14T13:23:52;2.30;;;2.10;;
47882;SDS011;37739;50.350;7.578;2023-05-14T13:26:20;2.43;;;2.23;;
47882;SDS011;37739;50.350;7.578;2023-05-14T13:28:46;3.97;;;2.20;;
47882;SDS011;37739;50.350;7.578;2023-05-14T13:31:12;2.33;;;2.13;;
47882;SDS011;37739;50.350;7.578;2023-05-14T13:33:44;2.30;;;2.20;;
47882;SDS011;37739;50.350;7.578;2023-05-14T13:36:13;2.47;;;2.20;;
47882;SDS011;37739;50.350;7.578;2023-05-14T13:38:42;2.70;;;2.00;;
47882;SDS011;37739;50.350;7.578;2023-05-14T13:41:12;2.23;;;2.03;;
47882;SDS011;37739;50.350;7.578;2023-05-14T13:43:38;1.60;;;1.50;;
47882;SDS011;37739;50.350;7.578;2023-05-14T13:46:05;1.40;;;1.30;;
47882;SDS011;37739;50.350;7.578;2023-05-14T13:48:31;1.90;;;1.80;;
47882;SDS011;37739;50.350;7.578;2023-05-14T13:50:59;2.33;;;1.90;;
47882;SDS011;37739;50.350;7.578;2023-05-14T13:53:29;1.40;;;1.30;;
47882;SDS011;37739;50.350;7.578;2023-05-14T13:55:55;1.90;;;1.80;;
47882;SDS011;37739;50.350;7.578;2023-05-14T13:58:24;1.67;;;1.57;;
47882;SDS011;37739;50.350;7.578;2023-05-14T14:00:51;2.20;;;2.00;;
47882;SDS011;37739;50.350;7.578;2023-05-14T14:03:19;1.60;;;1.50;;
47882;SDS011;37739;50.350;7.578;2023-05-14T14:05:47;2.50;;;1.33;;
47882;SDS011;37739;50.350;7.578;2023-05-14T14:08:16;1.10;;;1.00;;
47882;SDS011;37739;50.350;7.578;2023-05-14T14:10:44;2.17;;;1.63;;
47882;SDS011;37739;50.350;7.578;2023-05-14T14:13:09;1.60;;;1.50;;
47882;SDS011;37739;50.350;7.578;2023-05-14T14:15:37;1.87;;;1.70;;
47882;SDS011;37739;50.350;7.578;2023-05-14T14:18:02;1.97;;;1.87;;
47882;SDS011;37739;50.350;7.578;2023-05-14T14:20:30;1.60;;;1.50;;
47882;SDS011;37739;50.350;7.578;2023-05-14T14:22:58;2.03;;;1.43;;
47882;SDS011;37739;50.350;7.578;2023-05-14T14:25:24;1.40;;;1.03;;
47882;SDS011;37739;50.350;7.578;2023-05-14T14:27:49;1.90;;;1.47;;
47882;SDS011;37739;50.350;7.578;2023-05-14T14:30:15;1.67;;;1.57;;
47882;SDS011;37739;50.350;7.578;2023-05-14T14:32:41;1.83;;;1.73;;
47882;SDS011;37739;50.350;7.578;2023-05-14T14:35:07;2.47;;;1.60;;
47882;SDS011;37739;50.350;7.578;2023-05-14T14:37:36;3.30;;;1.80;;
47882;SDS011;37739;50.350;7.578;2023-05-14T14:40:05;2.30;;;2.03;;
47882;SDS011;37739;50.350;7.578;2023-05-14T14:42:32;1.70;;;1.60;;
47882;SDS011;37739;50.350;7.578;2023-05-14T14:44:58;1.77;;;1.67;;
47882;SDS011;37739;50.350;7.578;2023-05-14T14:47:23;2.00;;;1.80;;
47882;SDS011;37739;50.350;7.578;2023-05-14T14:49:49;2.17;;;1.80;;
47882;SDS011;37739;50.350;7.578;2023-05-14T14:52:14;2.20;;;2.00;;
47882;SDS011;37739;50.350;7.578;2023-05-14T14:54:39;1.80;;;1.70;;
47882;SDS011;37739;50.350;7.578;2023-05-14T14:57:05;2.27;;;2.07;;